Latest Weather Observations for Hillarys Point Boat Harbour

IDW60801

Issued at 10:32 pm WST Tuesday 28 April 2015 (issued every 30 minutes, with the page automatically refreshed every 10 minutes)

About weather observations | Map of weather stations | Latest weather observations for WA | Other Formats
Station Details ID: 009265 Name: HILLARYS BOAT HARBOUR NTC AWS Lat: -31.83 Lon: 115.74 Height: 0.0 m
Data from the previous 72 hours. | See also: Recent months for locations in Western Australia
Date/Time
WST
Temp
°C
App
Temp
°C
Dew
Point
Rel
Hum
%
Delta-T
°C
Wind Press
QNH
hPa
Press
MSL
hPa
Rain
since 9 am
mm
Dir
 
Spd
km/h
Gust
km/h
Spd
kts
Gust
kts
28/10:30pm 19.7 - - - - NE 4 6 2 3 1021.2 1021.2 -
28/10:00pm 20.0 - - - - N 2 6 1 3 1021.1 1021.1 -
28/09:30pm 20.2 - - - - N 6 9 3 5 1021.2 1021.2 -
28/09:00pm 20.8 - - - - ENE 7 11 4 6 1021.3 1021.3 -
28/08:30pm 21.6 - - - - ENE 7 11 4 6 1021.1 1021.1 -
28/08:00pm 21.6 - - - - ENE 9 13 5 7 1021.1 1021.1 -
28/07:30pm 21.8 - - - - ENE 7 11 4 6 1021.0 1021.0 -
28/07:00pm 22.4 - - - - ENE 7 9 4 5 1021.0 1021.0 -
28/06:30pm 22.4 - - - - ENE 6 7 3 4 1020.7 1020.7 -
28/06:00pm 22.9 - - - - ENE 6 7 3 4 1020.5 1020.5 -
28/05:30pm 23.5 - - - - ENE 6 9 3 5 1020.4 1020.4 -
28/05:00pm 23.7 - - - - NE 2 4 1 2 1020.3 1020.3 -
28/04:30pm 23.7 - - - - N 2 2 1 1 1020.4 1020.4 -
28/04:00pm 24.1 - - - - NNE 6 11 3 6 1020.2 1020.2 -
28/03:30pm 24.1 - - - - N 6 11 3 6 1020.0 1020.0 -
28/03:00pm 24.3 - - - - N 7 13 4 7 1019.9 1019.9 -
28/02:30pm 24.4 - - - - NNE 9 17 5 9 1019.8 1019.8 -
28/02:00pm 24.4 - - - - NNE 11 19 6 10 1019.6 1019.6 -
28/01:30pm 24.2 - - - - NNE 11 17 6 9 1019.9 1019.9 -
28/01:00pm 24.1 - - - - NNE 11 20 6 11 1020.4 1020.4 -
28/12:30pm 24.0 - - - - NNE 13 22 7 12 1020.9 1020.9 -
28/12:00pm 23.5 - - - - NE 11 24 6 13 1021.0 1021.0 -
28/11:30am 22.9 - - - - ENE 17 30 9 16 1021.0 1021.0 -
28/11:00am 22.2 - - - - NE 15 26 8 14 1021.2 1021.2 -
28/10:30am 21.6 - - - - NE 13 28 7 15 1021.5 1021.5 -
28/10:00am 20.1 - - - - ENE 17 30 9 16 1021.5 1021.5 -
28/09:30am 19.5 - - - - ENE 22 39 12 21 1021.5 1021.5 -
28/09:00am 18.9 - - - - ENE 22 41 12 22 1021.5 1021.5 -
28/08:30am 18.0 - - - - ENE 24 41 13 22 1022.0 1022.0 -
28/08:00am 17.1 - - - - ENE 26 37 14 20 1021.6 1021.6 -
28/07:30am 16.6 - - - - ENE 20 37 11 20 1021.7 1021.7 -
28/07:00am 16.4 - - - - ENE 20 32 11 17 1021.5 1021.5 -
28/06:30am 16.8 - - - - ENE 22 33 12 18 1021.3 1021.3 -
28/06:00am 17.1 - - - - ENE 22 33 12 18 1021.2 1021.2 -
28/05:30am 17.4 - - - - ENE 20 30 11 16 1021.0 1021.0 -
28/05:00am 17.6 - - - - ENE 20 30 11 16 1020.9 1020.9 -
28/04:30am 17.9 - - - - ENE 20 30 11 16 1020.9 1020.9 -
28/04:00am 18.1 - - - - ENE 20 30 11 16 1020.8 1020.8 -
28/03:30am 18.2 - - - - ENE 20 33 11 18 1020.8 1020.8 -
28/03:00am 18.3 - - - - ENE 17 24 9 13 1021.1 1021.1 -
28/02:30am 18.5 - - - - ENE 20 30 11 16 1021.0 1021.0 -
28/02:00am 18.5 - - - - ENE 17 26 9 14 1021.1 1021.1 -
28/01:30am 18.4 - - - - ENE 15 22 8 12 1021.3 1021.3 -
28/01:00am 18.6 - - - - ENE 17 24 9 13 1021.5 1021.5 -
28/12:30am 19.1 - - - - ENE 17 28 9 15 1021.7 1021.7 -
28/12:00am 19.1 - - - - ENE 17 28 9 15 1021.8 1021.8 -
 
Date/Time
WST
Temp
°C
App
Temp
°C
Dew
Point
Rel
Hum
%
Delta-T
°C
Wind Press
QNH
hPa
Press
MSL
hPa
Rain
since 9 am
mm
Dir
 
Spd
km/h
Gust
km/h
Spd
kts
Gust
kts
27/11:30pm 18.9 - - - - ENE 13 20 7 11 1022.1 1022.1 -
27/11:00pm 19.2 - - - - ENE 13 20 7 11 1022.4 1022.4 -
27/10:30pm 19.6 - - - - ENE 15 24 8 13 1022.6 1022.6 -
27/10:00pm 18.7 - - - - ENE 11 15 6 8 1022.6 1022.6 -
27/09:30pm 19.3 - - - - ENE 9 13 5 7 1022.6 1022.6 -
27/09:00pm 20.0 - - - - ENE 7 11 4 6 1022.4 1022.4 -
27/08:30pm 20.7 - - - - E 7 13 4 7 1022.0 1022.0 -
27/08:00pm 21.4 - - - - ENE 7 13 4 7 1022.1 1022.1 -
27/07:30pm 21.9 - - - - ENE 9 13 5 7 1022.0 1022.0 -
27/07:00pm 22.3 - - - - E 7 13 4 7 1021.9 1021.9 -
27/06:30pm 23.0 - - - - E 6 11 3 6 1022.0 1022.0 -
27/06:00pm 23.9 - - - - ENE 6 9 3 5 1021.7 1021.7 -
27/05:30pm 25.0 - - - - ENE 11 19 6 10 1021.3 1021.3 -
27/05:00pm 25.5 - - - - ENE 13 22 7 12 1021.2 1021.2 -
27/04:30pm 25.7 - - - - ENE 15 22 8 12 1021.3 1021.3 -
27/04:00pm 26.1 - - - - ENE 9 20 5 11 1021.3 1021.3 -
27/03:30pm 25.8 - - - - ENE 13 28 7 15 1021.3 1021.3 -
27/03:00pm 25.6 - - - - ENE 15 26 8 14 1021.4 1021.4 -
27/02:30pm 24.9 - - - - ENE 13 20 7 11 1021.4 1021.4 -
27/02:00pm 24.9 - - - - ENE 15 32 8 17 1021.5 1021.5 -
27/01:30pm 24.4 - - - - ENE 17 30 9 16 1021.8 1021.8 -
27/01:00pm 24.1 - - - - ENE 17 28 9 15 1022.1 1022.1 -
27/12:30pm 23.3 - - - - ENE 15 32 8 17 1022.8 1022.8 -
27/12:00pm 22.6 - - - - ENE 17 32 9 17 1023.2 1023.2 -
27/11:30am 22.1 - - - - ENE 19 30 10 16 1023.7 1023.7 -
27/11:00am 20.9 - - - - ENE 20 32 11 17 1024.2 1024.2 -
27/10:30am 20.4 - - - - ENE 22 35 12 19 1024.5 1024.5 -
27/10:00am 20.1 - - - - ENE 22 39 12 21 1024.6 1024.6 -
27/09:30am 19.2 - - - - ENE 24 39 13 21 1024.6 1024.6 -
27/09:00am 18.7 - - - - ENE 22 35 12 19 1024.7 1024.7 -
27/08:30am 17.3 - - - - ENE 19 28 10 15 1024.7 1024.7 -
27/08:00am 16.5 - - - - ENE 20 30 11 16 1024.6 1024.6 -
27/07:30am 15.7 - - - - ENE 19 30 10 16 1024.2 1024.2 -
27/07:00am 15.1 - - - - ENE 17 24 9 13 1024.0 1024.0 -
27/06:30am 14.9 - - - - ENE 15 24 8 13 1023.8 1023.8 -
27/06:00am 15.3 - - - - ENE 17 26 9 14 1023.5 1023.5 -
27/05:30am 15.5 - - - - ENE 17 26 9 14 1023.4 1023.4 -
27/05:00am 15.9 - - - - ENE 19 28 10 15 1023.2 1023.2 -
27/04:30am 15.9 - - - - ENE 17 28 9 15 1023.0 1023.0 -
27/04:00am 16.3 - - - - ENE 19 28 10 15 1022.9 1022.9 -
27/03:30am 16.4 - - - - ENE 17 28 9 15 1022.9 1022.9 -
27/03:00am 16.4 - - - - ENE 17 26 9 14 1022.9 1022.9 -
27/02:30am 16.5 - - - - ENE 19 30 10 16 1023.0 1023.0 -
27/02:00am 16.1 - - - - ENE 13 22 7 12 1023.2 1023.2 -
27/01:30am 16.0 - - - - ENE 11 17 6 9 1023.3 1023.3 -
27/01:00am 16.5 - - - - E 9 15 5 8 1023.4 1023.4 -
27/12:30am 16.7 - - - - E 7 13 4 7 1023.4 1023.4 -
27/12:00am 16.7 - - - - ENE 7 15 4 8 1023.6 1023.6 -
 
Date/Time
WST
Temp
°C
App
Temp
°C
Dew
Point
Rel
Hum
%
Delta-T
°C
Wind Press
QNH
hPa
Press
MSL
hPa
Rain
since 9 am
mm
Dir
 
Spd
km/h
Gust
km/h
Spd
kts
Gust
kts
26/11:30pm 16.9 - - - - E 7 11 4 6 1023.6 1023.6 -
26/11:00pm 17.1 - - - - E 6 11 3 6 1023.7 1023.7 -
26/10:30pm 17.6 - - - - E 7 13 4 7 1023.8 1023.8 -
26/10:00pm 18.1 - - - - E 6 9 3 5 1023.9 1023.9 -
26/09:30pm 18.4 - - - - E 6 9 3 5 1023.9 1023.9 -
26/09:00pm 18.9 - - - - E 6 9 3 5 1023.9 1023.9 -
26/08:30pm 19.4 - - - - E 6 9 3 5 1023.9 1023.9 -
26/08:00pm 19.9 - - - - E 6 9 3 5 1023.7 1023.7 -
26/07:30pm 20.5 - - - - E 7 11 4 6 1023.6 1023.6 -
26/07:00pm 21.0 - - - - E 6 9 3 5 1023.3 1023.3 -
26/06:30pm 21.6 - - - - E 6 13 3 7 1022.9 1022.9 -
26/06:00pm 22.3 - - - - E 7 15 4 8 1022.7 1022.7 -
26/05:30pm 23.2 - - - - ENE 11 20 6 11 1022.3 1022.3 -
26/05:00pm 23.8 - - - - E 11 22 6 12 1022.1 1022.1 -
26/04:30pm 24.2 - - - - ENE 13 20 7 11 1022.0 1022.0 -
26/04:00pm 24.2 - - - - ENE 11 22 6 12 1021.9 1021.9 -
26/03:30pm 24.2 - - - - ENE 15 30 8 16 1021.9 1021.9 -
26/03:00pm 24.1 - - - - E 11 22 6 12 1021.8 1021.8 -
26/02:30pm 24.1 - - - - E 9 22 5 12 1021.9 1021.9 -
26/02:00pm 23.4 - - - - ENE 11 22 6 12 1022.0 1022.0 -
26/01:30pm 23.5 - - - - E 11 20 6 11 1022.3 1022.3 -
26/01:00pm 22.8 - - - - E 15 26 8 14 1022.8 1022.8 -
26/12:30pm 22.2 - - - - ENE 19 32 10 17 1023.1 1023.1 -
26/12:00pm 21.7 - - - - ENE 13 26 7 14 1023.7 1023.7 -
26/11:30am 21.2 - - - - ENE 17 30 9 16 1024.2 1024.2 -
26/11:00am 20.5 - - - - ENE 17 30 9 16 1024.5 1024.5 -
26/10:30am 19.9 - - - - ENE 15 28 8 15 1024.8 1024.8 -
26/10:00am 18.9 - - - - ENE 17 26 9 14 1025.0 1025.0 -
26/09:30am 17.6 - - - - ENE 20 32 11 17 1025.2 1025.2 -
26/09:00am 16.9 - - - - ENE 17 32 9 17 1025.2 1025.2 -
26/08:30am 15.4 - - - - ENE 17 26 9 14 1025.1 1025.1 -
26/08:00am 14.6 - - - - ENE 17 32 9 17 1024.9 1024.9 -
26/07:30am 13.8 - - - - ENE 13 24 7 13 1024.6 1024.6 -
26/07:00am 13.4 - - - - E 11 20 6 11 1024.4 1024.4 -
26/06:30am 13.4 - - - - ENE 11 19 6 10 1024.2 1024.2 -
26/06:00am 13.6 - - - - ENE 11 19 6 10 1024.0 1024.0 -
26/05:30am 13.7 - - - - ENE 11 20 6 11 1023.9 1023.9 -
26/05:00am 14.0 - - - - ENE 11 19 6 10 1023.8 1023.8 -
26/04:30am 14.0 - - - - ENE 9 15 5 8 1023.8 1023.8 -
26/04:00am 14.4 - - - - ENE 9 17 5 9 1023.7 1023.7 -
26/03:30am 14.7 - - - - ENE 9 17 5 9 1023.6 1023.6 -
26/03:00am 15.2 - - - - ENE 11 17 6 9 1023.7 1023.7 -
26/02:30am 15.7 - - - - ENE 11 19 6 10 1023.7 1023.7 -
26/02:00am 15.9 - - - - E 9 19 5 10 1023.8 1023.8 -
26/01:30am 15.9 - - - - E 9 20 5 11 1023.9 1023.9 -
26/01:00am 15.8 - - - - E 7 15 4 8 1023.9 1023.9 -
26/12:30am 15.9 - - - - E 6 11 3 6 1023.8 1023.8 -
26/12:00am 16.2 - - - - E 6 13 3 7 1023.8 1023.8 -
 
Date/Time
WST
Temp
°C
App
Temp
°C
Dew
Point
Rel
Hum
%
Delta-T
°C
Wind Press
QNH
hPa
Press
MSL
hPa
Rain
since 9 am
mm
Dir
 
Spd
km/h
Gust
km/h
Spd
kts
Gust
kts
25/11:30pm 16.3 - - - - E 6 13 3 7 1024.0 1024.0 -
25/11:00pm 16.1 - - - - E 4 11 2 6 1024.2 1024.2 -

Other Formats:

Comma delimited format used in spreadsheet applications
http://www.bom.gov.au/fwo/IDW60801/IDW60801.95605.axf

JavaScript Object Notation format (JSON) in row-major order
http://www.bom.gov.au/fwo/IDW60801/IDW60801.95605.json